sensor_id;sensor_type;location;lat;lon;timestamp;P1;durP1;ratioP1;P2;durP2;ratioP2
10452;SDS011;5274;51.992;8.518;2022-07-11T00:01:50;3.85;;;2.63;;
10452;SDS011;5274;51.992;8.518;2022-07-11T00:04:16;5.65;;;2.90;;
10452;SDS011;5274;51.992;8.518;2022-07-11T00:06:42;5.00;;;3.35;;
10452;SDS011;5274;51.992;8.518;2022-07-11T00:09:07;5.35;;;2.97;;
10452;SDS011;5274;51.992;8.518;2022-07-11T00:11:33;4.20;;;3.08;;
10452;SDS011;5274;51.992;8.518;2022-07-11T00:13:58;5.03;;;3.22;;
10452;SDS011;5274;51.992;8.518;2022-07-11T00:16:24;5.60;;;3.10;;
10452;SDS011;5274;51.992;8.518;2022-07-11T00:18:50;4.80;;;3.10;;
10452;SDS011;5274;51.992;8.518;2022-07-11T00:21:15;4.82;;;3.47;;
10452;SDS011;5274;51.992;8.518;2022-07-11T00:23:41;6.00;;;3.10;;
10452;SDS011;5274;51.992;8.518;2022-07-11T00:26:06;8.38;;;3.78;;
10452;SDS011;5274;51.992;8.518;2022-07-11T00:28:32;3.60;;;3.05;;
10452;SDS011;5274;51.992;8.518;2022-07-11T00:30:57;4.30;;;3.42;;
10452;SDS011;5274;51.992;8.518;2022-07-11T00:33:23;3.67;;;3.25;;
10452;SDS011;5274;51.992;8.518;2022-07-11T00:35:48;4.35;;;3.47;;
10452;SDS011;5274;51.992;8.518;2022-07-11T00:38:14;4.05;;;3.22;;
10452;SDS011;5274;51.992;8.518;2022-07-11T00:40:39;3.92;;;3.28;;
10452;SDS011;5274;51.992;8.518;2022-07-11T00:43:05;3.50;;;3.20;;
10452;SDS011;5274;51.992;8.518;2022-07-11T00:45:31;5.10;;;3.42;;
10452;SDS011;5274;51.992;8.518;2022-07-11T00:47:57;4.65;;;3.65;;
10452;SDS011;5274;51.992;8.518;2022-07-11T00:50:23;5.20;;;3.63;;
10452;SDS011;5274;51.992;8.518;2022-07-11T00:52:52;7.85;;;3.25;;
10452;SDS011;5274;51.992;8.518;2022-07-11T00:55:20;4.10;;;3.20;;
10452;SDS011;5274;51.992;8.518;2022-07-11T00:57:46;6.05;;;3.70;;
10452;SDS011;5274;51.992;8.518;2022-07-11T01:00:13;7.03;;;3.70;;
10452;SDS011;5274;51.992;8.518;2022-07-11T01:02:39;7.05;;;3.80;;
10452;SDS011;5274;51.992;8.518;2022-07-11T01:05:05;8.52;;;3.67;;
10452;SDS011;5274;51.992;8.518;2022-07-11T01:07:31;4.93;;;3.58;;
10452;SDS011;5274;51.992;8.518;2022-07-11T01:09:57;7.72;;;4.32;;
10452;SDS011;5274;51.992;8.518;2022-07-11T01:12:23;5.50;;;4.45;;
10452;SDS011;5274;51.992;8.518;2022-07-11T01:14:52;5.72;;;4.45;;
10452;SDS011;5274;51.992;8.518;2022-07-11T01:17:19;7.72;;;3.97;;
10452;SDS011;5274;51.992;8.518;2022-07-11T01:19:45;8.85;;;4.90;;
10452;SDS011;5274;51.992;8.518;2022-07-11T01:22:10;7.43;;;5.03;;
10452;SDS011;5274;51.992;8.518;2022-07-11T01:24:39;12.13;;;5.82;;
10452;SDS011;5274;51.992;8.518;2022-07-11T01:27:05;10.60;;;5.45;;
10452;SDS011;5274;51.992;8.518;2022-07-11T01:29:32;8.82;;;5.70;;
10452;SDS011;5274;51.992;8.518;2022-07-11T01:31:57;6.97;;;5.75;;
10452;SDS011;5274;51.992;8.518;2022-07-11T01:34:23;10.88;;;7.47;;
10452;SDS011;5274;51.992;8.518;2022-07-11T01:36:48;9.88;;;6.97;;
10452;SDS011;5274;51.992;8.518;2022-07-11T01:39:14;11.18;;;7.65;;
10452;SDS011;5274;51.992;8.518;2022-07-11T01:41:39;12.73;;;7.57;;
10452;SDS011;5274;51.992;8.518;2022-07-11T01:44:05;16.75;;;7.88;;
10452;SDS011;5274;51.992;8.518;2022-07-11T01:46:31;14.77;;;7.85;;
10452;SDS011;5274;51.992;8.518;2022-07-11T01:48:56;14.55;;;8.20;;
10452;SDS011;5274;51.992;8.518;2022-07-11T01:51:22;13.32;;;8.38;;
10452;SDS011;5274;51.992;8.518;2022-07-11T01:53:48;11.52;;;7.75;;
10452;SDS011;5274;51.992;8.518;2022-07-11T01:56:14;14.63;;;8.32;;
10452;SDS011;5274;51.992;8.518;2022-07-11T01:58:39;12.32;;;8.60;;
10452;SDS011;5274;51.992;8.518;2022-07-11T02:01:05;12.80;;;8.55;;
10452;SDS011;5274;51.992;8.518;2022-07-11T02:03:30;15.25;;;9.10;;
10452;SDS011;5274;51.992;8.518;2022-07-11T02:05:56;11.10;;;7.93;;
10452;SDS011;5274;51.992;8.518;2022-07-11T02:08:21;12.23;;;8.27;;
10452;SDS011;5274;51.992;8.518;2022-07-11T02:10:48;12.20;;;8.38;;
10452;SDS011;5274;51.992;8.518;2022-07-11T02:13:15;13.90;;;8.13;;
10452;SDS011;5274;51.992;8.518;2022-07-11T02:15:42;19.40;;;9.35;;
10452;SDS011;5274;51.992;8.518;2022-07-11T02:18:09;14.98;;;8.27;;
10452;SDS011;5274;51.992;8.518;2022-07-11T02:20:35;15.70;;;9.15;;
10452;SDS011;5274;51.992;8.518;2022-07-11T02:23:02;15.80;;;8.20;;
10452;SDS011;5274;51.992;8.518;2022-07-11T02:25:28;13.82;;;8.02;;
10452;SDS011;5274;51.992;8.518;2022-07-11T02:27:54;10.75;;;8.10;;
10452;SDS011;5274;51.992;8.518;2022-07-11T02:30:20;10.80;;;7.65;;
10452;SDS011;5274;51.992;8.518;2022-07-11T02:32:45;13.98;;;8.80;;
10452;SDS011;5274;51.992;8.518;2022-07-11T02:35:11;14.20;;;8.43;;
10452;SDS011;5274;51.992;8.518;2022-07-11T02:37:37;14.20;;;8.98;;
10452;SDS011;5274;51.992;8.518;2022-07-11T02:40:02;15.90;;;9.23;;
10452;SDS011;5274;51.992;8.518;2022-07-11T02:42:28;13.40;;;9.55;;
10452;SDS011;5274;51.992;8.518;2022-07-11T02:44:54;15.30;;;8.82;;
10452;SDS011;5274;51.992;8.518;2022-07-11T02:47:19;12.07;;;8.82;;
10452;SDS011;5274;51.992;8.518;2022-07-11T02:49:44;15.18;;;9.88;;
10452;SDS011;5274;51.992;8.518;2022-07-11T02:52:13;15.68;;;9.48;;
10452;SDS011;5274;51.992;8.518;2022-07-11T02:54:38;15.57;;;9.80;;
10452;SDS011;5274;51.992;8.518;2022-07-11T02:57:04;13.30;;;9.43;;
10452;SDS011;5274;51.992;8.518;2022-07-11T02:59:29;14.07;;;9.00;;
10452;SDS011;5274;51.992;8.518;2022-07-11T03:01:55;12.80;;;10.05;;
10452;SDS011;5274;51.992;8.518;2022-07-11T03:04:20;18.00;;;10.48;;
10452;SDS011;5274;51.992;8.518;2022-07-11T03:06:46;13.43;;;10.38;;
10452;SDS011;5274;51.992;8.518;2022-07-11T03:09:12;20.02;;;10.27;;
10452;SDS011;5274;51.992;8.518;2022-07-11T03:11:37;12.73;;;9.40;;
10452;SDS011;5274;51.992;8.518;2022-07-11T03:14:03;17.73;;;9.45;;
10452;SDS011;5274;51.992;8.518;2022-07-11T03:16:29;17.55;;;10.23;;
10452;SDS011;5274;51.992;8.518;2022-07-11T03:18:55;14.05;;;10.23;;
10452;SDS011;5274;51.992;8.518;2022-07-11T03:21:21;17.15;;;10.35;;
10452;SDS011;5274;51.992;8.518;2022-07-11T03:23:47;16.42;;;10.18;;
10452;SDS011;5274;51.992;8.518;2022-07-11T03:26:14;18.63;;;11.18;;
10452;SDS011;5274;51.992;8.518;2022-07-11T03:28:40;15.77;;;10.88;;
10452;SDS011;5274;51.992;8.518;2022-07-11T03:31:06;16.23;;;10.73;;
10452;SDS011;5274;51.992;8.518;2022-07-11T03:33:31;20.15;;;10.90;;
10452;SDS011;5274;51.992;8.518;2022-07-11T03:35:57;20.17;;;11.23;;
10452;SDS011;5274;51.992;8.518;2022-07-11T03:38:22;22.00;;;11.75;;
10452;SDS011;5274;51.992;8.518;2022-07-11T03:40:48;17.23;;;10.77;;
10452;SDS011;5274;51.992;8.518;2022-07-11T03:43:14;15.30;;;10.25;;
10452;SDS011;5274;51.992;8.518;2022-07-11T03:45:40;16.75;;;10.48;;
10452;SDS011;5274;51.992;8.518;2022-07-11T03:48:06;20.60;;;12.48;;
10452;SDS011;5274;51.992;8.518;2022-07-11T03:50:33;21.23;;;12.52;;
10452;SDS011;5274;51.992;8.518;2022-07-11T03:52:59;26.33;;;11.35;;
10452;SDS011;5274;51.992;8.518;2022-07-11T03:55:25;22.17;;;12.30;;
10452;SDS011;5274;51.992;8.518;2022-07-11T03:57:50;18.00;;;11.95;;
10452;SDS011;5274;51.992;8.518;2022-07-11T04:00:16;21.85;;;12.18;;
10452;SDS011;5274;51.992;8.518;2022-07-11T04:02:42;21.77;;;12.38;;
10452;SDS011;5274;51.992;8.518;2022-07-11T04:05:07;24.60;;;13.30;;
10452;SDS011;5274;51.992;8.518;2022-07-11T04:07:33;21.70;;;12.88;;
10452;SDS011;5274;51.992;8.518;2022-07-11T04:09:59;16.90;;;12.15;;
10452;SDS011;5274;51.992;8.518;2022-07-11T04:12:24;19.70;;;11.75;;
10452;SDS011;5274;51.992;8.518;2022-07-11T04:14:50;18.52;;;12.48;;
10452;SDS011;5274;51.992;8.518;2022-07-11T04:17:15;20.20;;;11.82;;
10452;SDS011;5274;51.992;8.518;2022-07-11T04:19:41;20.70;;;12.40;;
10452;SDS011;5274;51.992;8.518;2022-07-11T04:22:10;19.92;;;11.85;;
10452;SDS011;5274;51.992;8.518;2022-07-11T04:24:36;19.33;;;11.48;;
10452;SDS011;5274;51.992;8.518;2022-07-11T04:27:01;19.23;;;11.95;;
10452;SDS011;5274;51.992;8.518;2022-07-11T04:29:27;18.25;;;12.32;;
10452;SDS011;5274;51.992;8.518;2022-07-11T04:31:53;18.60;;;11.52;;
10452;SDS011;5274;51.992;8.518;2022-07-11T04:34:18;19.00;;;11.93;;
10452;SDS011;5274;51.992;8.518;2022-07-11T04:36:44;17.95;;;11.85;;
10452;SDS011;5274;51.992;8.518;2022-07-11T04:39:10;18.55;;;11.88;;
10452;SDS011;5274;51.992;8.518;2022-07-11T04:41:36;15.48;;;10.80;;
10452;SDS011;5274;51.992;8.518;2022-07-11T04:44:01;16.10;;;10.75;;
10452;SDS011;5274;51.992;8.518;2022-07-11T04:46:27;17.70;;;11.98;;
10452;SDS011;5274;51.992;8.518;2022-07-11T04:48:54;14.98;;;10.23;;
10452;SDS011;5274;51.992;8.518;2022-07-11T04:51:20;14.05;;;8.10;;
10452;SDS011;5274;51.992;8.518;2022-07-11T04:53:45;14.73;;;9.25;;
10452;SDS011;5274;51.992;8.518;2022-07-11T04:56:11;10.40;;;7.88;;
10452;SDS011;5274;51.992;8.518;2022-07-11T04:58:37;10.75;;;7.22;;
10452;SDS011;5274;51.992;8.518;2022-07-11T05:01:02;11.13;;;7.65;;
10452;SDS011;5274;51.992;8.518;2022-07-11T05:03:28;10.95;;;5.70;;
10452;SDS011;5274;51.992;8.518;2022-07-11T05:05:54;8.25;;;5.25;;
10452;SDS011;5274;51.992;8.518;2022-07-11T05:08:20;7.47;;;5.57;;
10452;SDS011;5274;51.992;8.518;2022-07-11T05:10:46;5.88;;;5.20;;
10452;SDS011;5274;51.992;8.518;2022-07-11T05:13:12;8.00;;;5.15;;
10452;SDS011;5274;51.992;8.518;2022-07-11T05:15:38;9.35;;;6.05;;
10452;SDS011;5274;51.992;8.518;2022-07-11T05:18:04;9.32;;;5.05;;
10452;SDS011;5274;51.992;8.518;2022-07-11T05:20:30;8.00;;;5.78;;
10452;SDS011;5274;51.992;8.518;2022-07-11T05:22:56;7.35;;;5.20;;
10452;SDS011;5274;51.992;8.518;2022-07-11T05:25:22;6.95;;;5.05;;
10452;SDS011;5274;51.992;8.518;2022-07-11T05:27:48;7.07;;;4.05;;
10452;SDS011;5274;51.992;8.518;2022-07-11T05:30:14;7.15;;;3.50;;
10452;SDS011;5274;51.992;8.518;2022-07-11T05:32:39;4.75;;;2.83;;
10452;SDS011;5274;51.992;8.518;2022-07-11T05:35:05;5.68;;;2.58;;
10452;SDS011;5274;51.992;8.518;2022-07-11T05:37:31;5.78;;;2.40;;
10452;SDS011;5274;51.992;8.518;2022-07-11T05:39:56;3.45;;;2.58;;
10452;SDS011;5274;51.992;8.518;2022-07-11T05:42:22;2.83;;;2.35;;
10452;SDS011;5274;51.992;8.518;2022-07-11T05:44:48;4.28;;;2.50;;
10452;SDS011;5274;51.992;8.518;2022-07-11T05:47:14;2.97;;;2.33;;
10452;SDS011;5274;51.992;8.518;2022-07-11T05:49:40;5.28;;;2.78;;
10452;SDS011;5274;51.992;8.518;2022-07-11T05:52:06;5.32;;;2.28;;
10452;SDS011;5274;51.992;8.518;2022-07-11T05:54:31;3.05;;;2.75;;
10452;SDS011;5274;51.992;8.518;2022-07-11T05:56:57;5.25;;;2.47;;
10452;SDS011;5274;51.992;8.518;2022-07-11T05:59:22;3.72;;;2.30;;
10452;SDS011;5274;51.992;8.518;2022-07-11T06:01:48;4.90;;;2.72;;
10452;SDS011;5274;51.992;8.518;2022-07-11T06:04:13;1.92;;;1.83;;
10452;SDS011;5274;51.992;8.518;2022-07-11T06:06:40;1.95;;;1.80;;
10452;SDS011;5274;51.992;8.518;2022-07-11T06:09:05;4.00;;;2.03;;
10452;SDS011;5274;51.992;8.518;2022-07-11T06:11:31;5.22;;;1.83;;
10452;SDS011;5274;51.992;8.518;2022-07-11T06:13:57;2.03;;;1.67;;
10452;SDS011;5274;51.992;8.518;2022-07-11T06:16:23;2.42;;;1.70;;
10452;SDS011;5274;51.992;8.518;2022-07-11T06:18:48;3.47;;;1.75;;
10452;SDS011;5274;51.992;8.518;2022-07-11T06:21:15;4.60;;;1.80;;
10452;SDS011;5274;51.992;8.518;2022-07-11T06:23:41;1.85;;;1.70;;
10452;SDS011;5274;51.992;8.518;2022-07-11T06:26:07;3.10;;;2.00;;
10452;SDS011;5274;51.992;8.518;2022-07-11T06:28:33;3.22;;;2.10;;
10452;SDS011;5274;51.992;8.518;2022-07-11T06:30:59;4.30;;;2.17;;
10452;SDS011;5274;51.992;8.518;2022-07-11T06:33:25;2.88;;;2.10;;
10452;SDS011;5274;51.992;8.518;2022-07-11T06:35:50;2.30;;;2.05;;
10452;SDS011;5274;51.992;8.518;2022-07-11T06:38:16;5.32;;;2.42;;
10452;SDS011;5274;51.992;8.518;2022-07-11T06:40:42;1.85;;;1.63;;
10452;SDS011;5274;51.992;8.518;2022-07-11T06:43:08;3.55;;;2.10;;
10452;SDS011;5274;51.992;8.518;2022-07-11T06:45:34;2.83;;;1.90;;
10452;SDS011;5274;51.992;8.518;2022-07-11T06:48:00;2.15;;;1.85;;
10452;SDS011;5274;51.992;8.518;2022-07-11T06:50:26;2.53;;;2.30;;
10452;SDS011;5274;51.992;8.518;2022-07-11T06:52:51;2.60;;;2.10;;
10452;SDS011;5274;51.992;8.518;2022-07-11T06:55:17;3.88;;;2.10;;
10452;SDS011;5274;51.992;8.518;2022-07-11T06:57:43;3.45;;;2.35;;
10452;SDS011;5274;51.992;8.518;2022-07-11T07:00:08;3.33;;;2.00;;
10452;SDS011;5274;51.992;8.518;2022-07-11T07:02:34;2.42;;;2.22;;
10452;SDS011;5274;51.992;8.518;2022-07-11T07:05:01;3.88;;;2.15;;
10452;SDS011;5274;51.992;8.518;2022-07-11T07:07:27;1.75;;;1.65;;
10452;SDS011;5274;51.992;8.518;2022-07-11T07:09:53;2.58;;;1.95;;
10452;SDS011;5274;51.992;8.518;2022-07-11T07:12:22;2.45;;;1.83;;
10452;SDS011;5274;51.992;8.518;2022-07-11T07:14:47;2.40;;;1.80;;
10452;SDS011;5274;51.992;8.518;2022-07-11T07:17:13;3.67;;;2.05;;
10452;SDS011;5274;51.992;8.518;2022-07-11T07:19:39;3.08;;;1.67;;
10452;SDS011;5274;51.992;8.518;2022-07-11T07:22:04;2.50;;;1.58;;
10452;SDS011;5274;51.992;8.518;2022-07-11T07:24:31;1.90;;;1.42;;
10452;SDS011;5274;51.992;8.518;2022-07-11T07:26:57;2.38;;;1.42;;
10452;SDS011;5274;51.992;8.518;2022-07-11T07:29:22;7.13;;;1.55;;
10452;SDS011;5274;51.992;8.518;2022-07-11T07:31:48;1.52;;;1.05;;
10452;SDS011;5274;51.992;8.518;2022-07-11T07:34:14;1.55;;;0.90;;
10452;SDS011;5274;51.992;8.518;2022-07-11T07:36:39;1.45;;;1.27;;
10452;SDS011;5274;51.992;8.518;2022-07-11T07:39:05;4.88;;;1.25;;
10452;SDS011;5274;51.992;8.518;2022-07-11T07:41:30;1.17;;;1.08;;
10452;SDS011;5274;51.992;8.518;2022-07-11T07:43:56;3.22;;;0.93;;
10452;SDS011;5274;51.992;8.518;2022-07-11T07:46:21;0.70;;;0.70;;
10452;SDS011;5274;51.992;8.518;2022-07-11T07:48:47;2.67;;;0.80;;
10452;SDS011;5274;51.992;8.518;2022-07-11T07:51:12;1.13;;;1.00;;
10452;SDS011;5274;51.992;8.518;2022-07-11T07:53:38;1.58;;;1.10;;
10452;SDS011;5274;51.992;8.518;2022-07-11T07:56:04;2.92;;;0.88;;
10452;SDS011;5274;51.992;8.518;2022-07-11T07:58:30;1.25;;;0.95;;
10452;SDS011;5274;51.992;8.518;2022-07-11T08:00:56;0.90;;;0.90;;
10452;SDS011;5274;51.992;8.518;2022-07-11T08:03:40;1.83;;;0.88;;
10452;SDS011;5274;51.992;8.518;2022-07-11T08:06:05;1.17;;;0.82;;
10452;SDS011;5274;51.992;8.518;2022-07-11T08:08:31;1.80;;;1.00;;
10452;SDS011;5274;51.992;8.518;2022-07-11T08:10:56;0.60;;;0.60;;
10452;SDS011;5274;51.992;8.518;2022-07-11T08:13:25;2.15;;;0.70;;
10452;SDS011;5274;51.992;8.518;2022-07-11T08:15:51;0.82;;;0.68;;
10452;SDS011;5274;51.992;8.518;2022-07-11T08:18:17;1.85;;;0.68;;
10452;SDS011;5274;51.992;8.518;2022-07-11T08:20:42;1.38;;;0.70;;
10452;SDS011;5274;51.992;8.518;2022-07-11T08:23:08;1.20;;;1.13;;
10452;SDS011;5274;51.992;8.518;2022-07-11T08:25:34;1.42;;;0.55;;
10452;SDS011;5274;51.992;8.518;2022-07-11T08:27:59;0.70;;;0.50;;
10452;SDS011;5274;51.992;8.518;2022-07-11T08:30:25;0.63;;;0.63;;
10452;SDS011;5274;51.992;8.518;2022-07-11T08:32:51;0.70;;;0.63;;
10452;SDS011;5274;51.992;8.518;2022-07-11T08:35:17;2.10;;;0.73;;
10452;SDS011;5274;51.992;8.518;2022-07-11T08:37:43;0.73;;;0.57;;
10452;SDS011;5274;51.992;8.518;2022-07-11T08:40:08;0.43;;;0.43;;
10452;SDS011;5274;51.992;8.518;2022-07-11T08:42:44;0.93;;;0.40;;
10452;SDS011;5274;51.992;8.518;2022-07-11T08:45:13;0.40;;;0.40;;
10452;SDS011;5274;51.992;8.518;2022-07-11T08:47:39;0.60;;;0.60;;
10452;SDS011;5274;51.992;8.518;2022-07-11T08:50:06;0.40;;;0.40;;
10452;SDS011;5274;51.992;8.518;2022-07-11T08:52:32;1.15;;;0.50;;
10452;SDS011;5274;51.992;8.518;2022-07-11T08:54:58;0.40;;;0.40;;
10452;SDS011;5274;51.992;8.518;2022-07-11T08:57:24;3.33;;;0.70;;
10452;SDS011;5274;51.992;8.518;2022-07-11T08:59:52;1.30;;;0.60;;
10452;SDS011;5274;51.992;8.518;2022-07-11T09:02:20;0.40;;;0.40;;
10452;SDS011;5274;51.992;8.518;2022-07-11T09:04:46;0.60;;;0.60;;
10452;SDS011;5274;51.992;8.518;2022-07-11T09:07:12;0.65;;;0.50;;
10452;SDS011;5274;51.992;8.518;2022-07-11T09:09:37;0.40;;;0.40;;
10452;SDS011;5274;51.992;8.518;2022-07-11T09:12:09;0.60;;;0.60;;
10452;SDS011;5274;51.992;8.518;2022-07-11T09:14:37;1.38;;;0.65;;
10452;SDS011;5274;51.992;8.518;2022-07-11T09:17:04;1.00;;;0.98;;
10452;SDS011;5274;51.992;8.518;2022-07-11T09:19:32;2.50;;;1.00;;
10452;SDS011;5274;51.992;8.518;2022-07-11T09:22:03;1.38;;;1.10;;
10452;SDS011;5274;51.992;8.518;2022-07-11T09:27:41;2.03;;;1.40;;
10452;SDS011;5274;51.992;8.518;2022-07-11T09:30:15;1.40;;;1.25;;
10452;SDS011;5274;51.992;8.518;2022-07-11T09:32:53;2.10;;;1.00;;
10452;SDS011;5274;51.992;8.518;2022-07-11T09:35:21;1.50;;;1.33;;
10452;SDS011;5274;51.992;8.518;2022-07-11T09:37:47;1.30;;;1.20;;
10452;SDS011;5274;51.992;8.518;2022-07-11T09:40:13;4.35;;;1.58;;
10452;SDS011;5274;51.992;8.518;2022-07-11T09:42:46;1.40;;;1.30;;
10452;SDS011;5274;51.992;8.518;2022-07-11T09:45:13;1.70;;;1.60;;
10452;SDS011;5274;51.992;8.518;2022-07-11T09:47:43;3.72;;;1.70;;
10452;SDS011;5274;51.992;8.518;2022-07-11T09:50:10;1.60;;;1.50;;
10452;SDS011;5274;51.992;8.518;2022-07-11T09:52:36;1.48;;;1.38;;
10452;SDS011;5274;51.992;8.518;2022-07-11T09:55:02;1.20;;;1.10;;
10452;SDS011;5274;51.992;8.518;2022-07-11T09:57:38;2.25;;;1.02;;
10452;SDS011;5274;51.992;8.518;2022-07-11T10:00:05;1.23;;;1.10;;
10452;SDS011;5274;51.992;8.518;2022-07-11T10:02:32;1.13;;;1.00;;
10452;SDS011;5274;51.992;8.518;2022-07-11T10:04:58;1.98;;;1.48;;
10452;SDS011;5274;51.992;8.518;2022-07-11T10:07:24;1.27;;;1.17;;
10452;SDS011;5274;51.992;8.518;2022-07-11T10:09:50;4.72;;;1.50;;
10452;SDS011;5274;51.992;8.518;2022-07-11T10:12:16;1.85;;;1.10;;
10452;SDS011;5274;51.992;8.518;2022-07-11T10:14:42;1.27;;;1.17;;
10452;SDS011;5274;51.992;8.518;2022-07-11T10:17:14;1.48;;;0.90;;
10452;SDS011;5274;51.992;8.518;2022-07-11T10:20:12;1.38;;;1.10;;
10452;SDS011;5274;51.992;8.518;2022-07-11T10:28:41;3.80;;;2.65;;
10452;SDS011;5274;51.992;8.518;2022-07-11T10:31:19;1.27;;;1.17;;
10452;SDS011;5274;51.992;8.518;2022-07-11T10:34:05;1.98;;;1.35;;
10452;SDS011;5274;51.992;8.518;2022-07-11T10:36:32;1.05;;;0.90;;
10452;SDS011;5274;51.992;8.518;2022-07-11T10:39:12;3.28;;;1.00;;
10452;SDS011;5274;51.992;8.518;2022-07-11T10:41:40;1.10;;;1.10;;
10452;SDS011;5274;51.992;8.518;2022-07-11T10:44:05;0.82;;;0.82;;
10452;SDS011;5274;51.992;8.518;2022-07-11T10:46:32;1.10;;;1.00;;
10452;SDS011;5274;51.992;8.518;2022-07-11T10:51:36;1.38;;;1.27;;
10452;SDS011;5274;51.992;8.518;2022-07-11T10:54:18;1.30;;;1.20;;
10452;SDS011;5274;51.992;8.518;2022-07-11T11:02:27;1.35;;;1.05;;
10452;SDS011;5274;51.992;8.518;2022-07-11T11:04:53;4.05;;;1.00;;
10452;SDS011;5274;51.992;8.518;2022-07-11T11:07:34;0.73;;;0.73;;
10452;SDS011;5274;51.992;8.518;2022-07-11T11:10:01;0.65;;;0.65;;
10452;SDS011;5274;51.992;8.518;2022-07-11T11:23:30;1.08;;;0.98;;
10452;SDS011;5274;51.992;8.518;2022-07-11T11:29:15;2.47;;;1.38;;
10452;SDS011;5274;51.992;8.518;2022-07-11T11:31:54;1.50;;;1.40;;
10452;SDS011;5274;51.992;8.518;2022-07-11T11:34:21;1.83;;;1.30;;
10452;SDS011;5274;51.992;8.518;2022-07-11T11:36:58;2.00;;;1.38;;
10452;SDS011;5274;51.992;8.518;2022-07-11T11:39:26;1.67;;;1.30;;
10452;SDS011;5274;51.992;8.518;2022-07-11T11:42:00;1.38;;;1.27;;
10452;SDS011;5274;51.992;8.518;2022-07-11T11:44:57;1.52;;;1.27;;
10452;SDS011;5274;51.992;8.518;2022-07-11T11:47:28;1.50;;;1.05;;
10452;SDS011;5274;51.992;8.518;2022-07-11T11:49:54;1.58;;;1.25;;
10452;SDS011;5274;51.992;8.518;2022-07-11T11:52:20;2.35;;;1.20;;
10452;SDS011;5274;51.992;8.518;2022-07-11T11:54:55;1.17;;;1.08;;
10452;SDS011;5274;51.992;8.518;2022-07-11T11:57:23;2.05;;;1.00;;
10452;SDS011;5274;51.992;8.518;2022-07-11T11:59:49;2.95;;;1.48;;
10452;SDS011;5274;51.992;8.518;2022-07-11T12:02:26;2.30;;;1.30;;
10452;SDS011;5274;51.992;8.518;2022-07-11T12:04:53;1.20;;;1.10;;
10452;SDS011;5274;51.992;8.518;2022-07-11T12:07:23;1.08;;;1.00;;
10452;SDS011;5274;51.992;8.518;2022-07-11T12:09:53;1.38;;;1.27;;
10452;SDS011;5274;51.992;8.518;2022-07-11T12:12:25;2.28;;;1.50;;
10452;SDS011;5274;51.992;8.518;2022-07-11T12:15:29;1.95;;;1.60;;
10452;SDS011;5274;51.992;8.518;2022-07-11T12:17:59;2.70;;;1.27;;
10452;SDS011;5274;51.992;8.518;2022-07-11T12:20:33;1.73;;;1.30;;
10452;SDS011;5274;51.992;8.518;2022-07-11T12:22:58;1.40;;;1.30;;
10452;SDS011;5274;51.992;8.518;2022-07-11T12:25:24;1.55;;;1.27;;
10452;SDS011;5274;51.992;8.518;2022-07-11T12:27:55;2.45;;;1.60;;
10452;SDS011;5274;51.992;8.518;2022-07-11T12:30:22;1.95;;;1.30;;
10452;SDS011;5274;51.992;8.518;2022-07-11T12:36:02;1.45;;;1.30;;
10452;SDS011;5274;51.992;8.518;2022-07-11T12:41:16;1.25;;;1.20;;
10452;SDS011;5274;51.992;8.518;2022-07-11T12:46:34;1.25;;;1.15;;
10452;SDS011;5274;51.992;8.518;2022-07-11T12:49:00;1.33;;;1.20;;
10452;SDS011;5274;51.992;8.518;2022-07-11T12:51:48;1.80;;;1.10;;
10452;SDS011;5274;51.992;8.518;2022-07-11T12:54:15;2.30;;;1.13;;
10452;SDS011;5274;51.992;8.518;2022-07-11T12:56:51;0.95;;;0.95;;
10452;SDS011;5274;51.992;8.518;2022-07-11T12:59:19;0.93;;;0.90;;
10452;SDS011;5274;51.992;8.518;2022-07-11T13:01:56;2.72;;;1.20;;
10452;SDS011;5274;51.992;8.518;2022-07-11T13:04:32;1.52;;;1.13;;
10452;SDS011;5274;51.992;8.518;2022-07-11T13:07:22;1.20;;;1.20;;
10452;SDS011;5274;51.992;8.518;2022-07-11T13:10:20;1.17;;;1.13;;
10452;SDS011;5274;51.992;8.518;2022-07-11T13:12:48;5.13;;;2.05;;
10452;SDS011;5274;51.992;8.518;2022-07-11T13:15:14;1.25;;;1.15;;
10452;SDS011;5274;51.992;8.518;2022-07-11T13:17:43;1.42;;;1.33;;
10452;SDS011;5274;51.992;8.518;2022-07-11T13:20:18;1.20;;;1.10;;
10452;SDS011;5274;51.992;8.518;2022-07-11T13:22:48;1.55;;;1.45;;
10452;SDS011;5274;51.992;8.518;2022-07-11T13:25:16;1.35;;;1.17;;
10452;SDS011;5274;51.992;8.518;2022-07-11T13:27:44;2.10;;;1.42;;
10452;SDS011;5274;51.992;8.518;2022-07-11T13:30:11;4.88;;;1.13;;
10452;SDS011;5274;51.992;8.518;2022-07-11T13:32:41;4.50;;;1.30;;
10452;SDS011;5274;51.992;8.518;2022-07-11T13:35:09;1.75;;;1.08;;
10452;SDS011;5274;51.992;8.518;2022-07-11T13:37:35;2.90;;;0.90;;
10452;SDS011;5274;51.992;8.518;2022-07-11T13:40:04;1.25;;;0.80;;
10452;SDS011;5274;51.992;8.518;2022-07-11T13:42:30;0.80;;;0.70;;
10452;SDS011;5274;51.992;8.518;2022-07-11T13:44:58;2.55;;;1.15;;
10452;SDS011;5274;51.992;8.518;2022-07-11T13:47:24;1.48;;;0.90;;
10452;SDS011;5274;51.992;8.518;2022-07-11T13:49:49;3.33;;;1.15;;
10452;SDS011;5274;51.992;8.518;2022-07-11T13:52:15;0.93;;;0.93;;
10452;SDS011;5274;51.992;8.518;2022-07-11T13:54:41;2.30;;;1.00;;
10452;SDS011;5274;51.992;8.518;2022-07-11T13:57:06;1.30;;;1.20;;
10452;SDS011;5274;51.992;8.518;2022-07-11T13:59:32;1.48;;;1.23;;
10452;SDS011;5274;51.992;8.518;2022-07-11T14:01:57;1.23;;;1.00;;
10452;SDS011;5274;51.992;8.518;2022-07-11T14:04:23;1.58;;;1.20;;
10452;SDS011;5274;51.992;8.518;2022-07-11T14:06:48;3.10;;;1.40;;
10452;SDS011;5274;51.992;8.518;2022-07-11T14:09:14;1.25;;;1.10;;
10452;SDS011;5274;51.992;8.518;2022-07-11T14:11:39;1.20;;;1.10;;
10452;SDS011;5274;51.992;8.518;2022-07-11T14:14:05;2.75;;;1.30;;
10452;SDS011;5274;51.992;8.518;2022-07-11T14:16:31;1.40;;;1.30;;
10452;SDS011;5274;51.992;8.518;2022-07-11T14:18:56;1.17;;;1.08;;
10452;SDS011;5274;51.992;8.518;2022-07-11T14:21:25;1.17;;;1.13;;
10452;SDS011;5274;51.992;8.518;2022-07-11T14:23:51;1.13;;;1.00;;
10452;SDS011;5274;51.992;8.518;2022-07-11T14:26:16;1.48;;;1.38;;
10452;SDS011;5274;51.992;8.518;2022-07-11T14:28:42;1.38;;;1.20;;
10452;SDS011;5274;51.992;8.518;2022-07-11T14:31:08;1.13;;;1.05;;
10452;SDS011;5274;51.992;8.518;2022-07-11T14:33:33;4.95;;;1.40;;
10452;SDS011;5274;51.992;8.518;2022-07-11T14:35:59;1.55;;;1.02;;
10452;SDS011;5274;51.992;8.518;2022-07-11T14:38:24;1.35;;;1.15;;
10452;SDS011;5274;51.992;8.518;2022-07-11T14:40:50;1.90;;;1.30;;
10452;SDS011;5274;51.992;8.518;2022-07-11T14:43:15;1.20;;;1.10;;
10452;SDS011;5274;51.992;8.518;2022-07-11T14:45:41;2.15;;;1.30;;
10452;SDS011;5274;51.992;8.518;2022-07-11T14:48:06;1.73;;;1.20;;
10452;SDS011;5274;51.992;8.518;2022-07-11T14:50:31;0.90;;;0.90;;
10452;SDS011;5274;51.992;8.518;2022-07-11T14:52:59;2.00;;;1.17;;
10452;SDS011;5274;51.992;8.518;2022-07-11T14:55:24;0.80;;;0.80;;
10452;SDS011;5274;51.992;8.518;2022-07-11T14:57:50;1.52;;;1.15;;
10452;SDS011;5274;51.992;8.518;2022-07-11T15:00:15;1.50;;;1.40;;
10452;SDS011;5274;51.992;8.518;2022-07-11T15:02:44;2.28;;;1.20;;
10452;SDS011;5274;51.992;8.518;2022-07-11T15:05:28;1.08;;;1.00;;
10452;SDS011;5274;51.992;8.518;2022-07-11T15:07:54;1.20;;;1.10;;
10452;SDS011;5274;51.992;8.518;2022-07-11T15:10:38;1.30;;;1.20;;
10452;SDS011;5274;51.992;8.518;2022-07-11T15:13:22;1.30;;;1.20;;
10452;SDS011;5274;51.992;8.518;2022-07-11T15:15:48;0.80;;;0.80;;
10452;SDS011;5274;51.992;8.518;2022-07-11T15:18:13;2.30;;;1.08;;
10452;SDS011;5274;51.992;8.518;2022-07-11T15:20:39;1.20;;;1.08;;
10452;SDS011;5274;51.992;8.518;2022-07-11T15:23:05;1.40;;;1.20;;
10452;SDS011;5274;51.992;8.518;2022-07-11T15:25:30;1.08;;;0.98;;
10452;SDS011;5274;51.992;8.518;2022-07-11T15:27:56;2.45;;;1.05;;
10452;SDS011;5274;51.992;8.518;2022-07-11T15:30:21;1.25;;;1.15;;
10452;SDS011;5274;51.992;8.518;2022-07-11T15:32:47;0.88;;;0.88;;
10452;SDS011;5274;51.992;8.518;2022-07-11T15:35:13;0.93;;;0.90;;
10452;SDS011;5274;51.992;8.518;2022-07-11T15:37:40;0.85;;;0.85;;